sensor_id;sensor_type;location;lat;lon;timestamp;temperature;humidity
15103;DHT22;7652;53.584;9.998;2023-09-30T00:03:00;14.80;99.90
15103;DHT22;7652;53.584;9.998;2023-09-30T00:06:21;14.70;99.90
15103;DHT22;7652;53.584;9.998;2023-09-30T00:09:43;14.70;99.90
15103;DHT22;7652;53.584;9.998;2023-09-30T00:13:06;14.70;99.90
15103;DHT22;7652;53.584;9.998;2023-09-30T00:16:27;14.70;99.90
15103;DHT22;7652;53.584;9.998;2023-09-30T00:19:49;14.70;99.90
15103;DHT22;7652;53.584;9.998;2023-09-30T00:23:11;14.70;99.90
15103;DHT22;7652;53.584;9.998;2023-09-30T00:26:33;14.70;99.90
15103;DHT22;7652;53.584;9.998;2023-09-30T00:29:56;14.60;99.90
15103;DHT22;7652;53.584;9.998;2023-09-30T00:33:17;14.50;99.90
15103;DHT22;7652;53.584;9.998;2023-09-30T00:36:38;14.50;99.90
15103;DHT22;7652;53.584;9.998;2023-09-30T00:40:00;14.50;99.90
15103;DHT22;7652;53.584;9.998;2023-09-30T00:43:22;14.50;99.90
15103;DHT22;7652;53.584;9.998;2023-09-30T00:46:45;14.60;99.90
15103;DHT22;7652;53.584;9.998;2023-09-30T00:50:07;14.60;99.90
15103;DHT22;7652;53.584;9.998;2023-09-30T00:53:31;14.60;99.90
15103;DHT22;7652;53.584;9.998;2023-09-30T00:56:55;14.60;99.90
15103;DHT22;7652;53.584;9.998;2023-09-30T01:00:17;14.60;99.90
15103;DHT22;7652;53.584;9.998;2023-09-30T01:03:41;14.50;99.90
15103;DHT22;7652;53.584;9.998;2023-09-30T01:07:03;14.50;99.90
15103;DHT22;7652;53.584;9.998;2023-09-30T01:10:25;14.50;99.90
15103;DHT22;7652;53.584;9.998;2023-09-30T01:13:47;14.50;99.90
15103;DHT22;7652;53.584;9.998;2023-09-30T01:17:10;14.40;99.90
15103;DHT22;7652;53.584;9.998;2023-09-30T01:20:35;14.40;99.90
15103;DHT22;7652;53.584;9.998;2023-09-30T01:23:58;14.40;99.90
15103;DHT22;7652;53.584;9.998;2023-09-30T01:27:20;14.30;99.90
15103;DHT22;7652;53.584;9.998;2023-09-30T01:30:41;14.30;99.90
15103;DHT22;7652;53.584;9.998;2023-09-30T01:34:04;14.30;99.90
15103;DHT22;7652;53.584;9.998;2023-09-30T01:37:26;14.30;99.90
15103;DHT22;7652;53.584;9.998;2023-09-30T01:40:50;14.30;99.90
15103;DHT22;7652;53.584;9.998;2023-09-30T01:44:11;14.30;99.90
15103;DHT22;7652;53.584;9.998;2023-09-30T01:47:33;14.30;99.90
15103;DHT22;7652;53.584;9.998;2023-09-30T01:50:55;14.30;99.90
15103;DHT22;7652;53.584;9.998;2023-09-30T01:54:16;14.30;99.90
15103;DHT22;7652;53.584;9.998;2023-09-30T01:57:39;14.30;99.90
15103;DHT22;7652;53.584;9.998;2023-09-30T02:01:02;14.30;99.90
15103;DHT22;7652;53.584;9.998;2023-09-30T02:04:24;14.20;99.90
15103;DHT22;7652;53.584;9.998;2023-09-30T02:07:45;14.20;99.90
15103;DHT22;7652;53.584;9.998;2023-09-30T02:11:07;14.20;99.90
15103;DHT22;7652;53.584;9.998;2023-09-30T02:14:31;14.20;99.90
15103;DHT22;7652;53.584;9.998;2023-09-30T02:17:52;14.20;99.90
15103;DHT22;7652;53.584;9.998;2023-09-30T02:21:14;14.10;99.90
15103;DHT22;7652;53.584;9.998;2023-09-30T02:24:37;14.10;99.90
15103;DHT22;7652;53.584;9.998;2023-09-30T02:28:00;14.00;99.90
15103;DHT22;7652;53.584;9.998;2023-09-30T02:31:23;14.00;99.90
15103;DHT22;7652;53.584;9.998;2023-09-30T02:34:45;13.90;99.90
15103;DHT22;7652;53.584;9.998;2023-09-30T02:38:07;14.00;99.90
15103;DHT22;7652;53.584;9.998;2023-09-30T02:41:29;14.00;99.90
15103;DHT22;7652;53.584;9.998;2023-09-30T02:44:50;14.00;99.90
15103;DHT22;7652;53.584;9.998;2023-09-30T02:48:13;14.00;99.90
15103;DHT22;7652;53.584;9.998;2023-09-30T02:51:35;13.90;99.90
15103;DHT22;7652;53.584;9.998;2023-09-30T02:54:56;13.90;99.90
15103;DHT22;7652;53.584;9.998;2023-09-30T02:58:18;13.80;99.90
15103;DHT22;7652;53.584;9.998;2023-09-30T03:01:39;13.80;99.90
15103;DHT22;7652;53.584;9.998;2023-09-30T03:05:03;13.80;99.90
15103;DHT22;7652;53.584;9.998;2023-09-30T03:08:25;13.80;99.90
15103;DHT22;7652;53.584;9.998;2023-09-30T03:11:46;13.80;99.90
15103;DHT22;7652;53.584;9.998;2023-09-30T03:15:09;13.80;99.90
15103;DHT22;7652;53.584;9.998;2023-09-30T03:18:30;13.70;99.90
15103;DHT22;7652;53.584;9.998;2023-09-30T03:21:53;13.80;99.90
15103;DHT22;7652;53.584;9.998;2023-09-30T03:25:16;13.80;99.90
15103;DHT22;7652;53.584;9.998;2023-09-30T03:28:39;13.80;99.90
15103;DHT22;7652;53.584;9.998;2023-09-30T03:32:01;13.80;99.90
15103;DHT22;7652;53.584;9.998;2023-09-30T03:35:22;13.70;99.90
15103;DHT22;7652;53.584;9.998;2023-09-30T03:38:46;13.70;99.90
15103;DHT22;7652;53.584;9.998;2023-09-30T03:42:07;13.80;99.90
15103;DHT22;7652;53.584;9.998;2023-09-30T03:45:32;13.70;99.90
15103;DHT22;7652;53.584;9.998;2023-09-30T03:48:54;13.70;99.90
15103;DHT22;7652;53.584;9.998;2023-09-30T03:52:15;13.70;99.90
15103;DHT22;7652;53.584;9.998;2023-09-30T03:55:39;13.70;99.90
15103;DHT22;7652;53.584;9.998;2023-09-30T03:59:02;13.70;99.90
15103;DHT22;7652;53.584;9.998;2023-09-30T04:02:23;13.70;99.90
15103;DHT22;7652;53.584;9.998;2023-09-30T04:05:45;13.70;99.90
15103;DHT22;7652;53.584;9.998;2023-09-30T04:09:07;13.70;99.90
15103;DHT22;7652;53.584;9.998;2023-09-30T04:12:32;13.70;99.90
15103;DHT22;7652;53.584;9.998;2023-09-30T04:15:53;13.70;99.90
15103;DHT22;7652;53.584;9.998;2023-09-30T04:19:15;13.80;99.90
15103;DHT22;7652;53.584;9.998;2023-09-30T04:22:36;13.80;99.90
15103;DHT22;7652;53.584;9.998;2023-09-30T04:25:58;13.60;99.90
15103;DHT22;7652;53.584;9.998;2023-09-30T04:29:21;13.60;99.90
15103;DHT22;7652;53.584;9.998;2023-09-30T04:32:44;13.60;99.90
15103;DHT22;7652;53.584;9.998;2023-09-30T04:36:05;13.60;99.90
15103;DHT22;7652;53.584;9.998;2023-09-30T04:39:29;13.60;99.90
15103;DHT22;7652;53.584;9.998;2023-09-30T04:42:52;13.60;99.90
15103;DHT22;7652;53.584;9.998;2023-09-30T04:46:17;13.70;99.90
15103;DHT22;7652;53.584;9.998;2023-09-30T04:49:41;13.70;99.90
15103;DHT22;7652;53.584;9.998;2023-09-30T04:53:04;13.70;99.90
15103;DHT22;7652;53.584;9.998;2023-09-30T04:56:25;13.70;99.90
15103;DHT22;7652;53.584;9.998;2023-09-30T04:59:47;13.70;99.90
15103;DHT22;7652;53.584;9.998;2023-09-30T05:03:10;13.70;99.90
15103;DHT22;7652;53.584;9.998;2023-09-30T05:06:32;13.70;99.90
15103;DHT22;7652;53.584;9.998;2023-09-30T05:09:54;13.70;99.90
15103;DHT22;7652;53.584;9.998;2023-09-30T05:13:16;13.70;99.90
15103;DHT22;7652;53.584;9.998;2023-09-30T05:16:37;13.70;99.90
15103;DHT22;7652;53.584;9.998;2023-09-30T05:20:00;13.70;99.90
15103;DHT22;7652;53.584;9.998;2023-09-30T05:23:23;13.70;99.90
15103;DHT22;7652;53.584;9.998;2023-09-30T05:26:45;13.80;99.90
15103;DHT22;7652;53.584;9.998;2023-09-30T05:30:09;13.80;99.90
15103;DHT22;7652;53.584;9.998;2023-09-30T05:33:31;13.80;99.90
15103;DHT22;7652;53.584;9.998;2023-09-30T05:36:54;13.90;99.90
15103;DHT22;7652;53.584;9.998;2023-09-30T05:40:15;13.90;99.90
15103;DHT22;7652;53.584;9.998;2023-09-30T05:43:44;13.90;99.90
15103;DHT22;7652;53.584;9.998;2023-09-30T05:47:05;13.90;99.90
15103;DHT22;7652;53.584;9.998;2023-09-30T05:50:27;13.90;99.90
15103;DHT22;7652;53.584;9.998;2023-09-30T05:53:50;13.80;99.90
15103;DHT22;7652;53.584;9.998;2023-09-30T05:57:12;13.90;99.90
15103;DHT22;7652;53.584;9.998;2023-09-30T06:00:34;13.90;99.90
15103;DHT22;7652;53.584;9.998;2023-09-30T06:03:56;13.90;99.90
15103;DHT22;7652;53.584;9.998;2023-09-30T06:07:18;13.90;99.90
15103;DHT22;7652;53.584;9.998;2023-09-30T06:10:42;14.00;99.90
15103;DHT22;7652;53.584;9.998;2023-09-30T06:14:04;14.00;99.90
15103;DHT22;7652;53.584;9.998;2023-09-30T06:17:27;14.00;99.90
15103;DHT22;7652;53.584;9.998;2023-09-30T06:20:49;14.00;99.90
15103;DHT22;7652;53.584;9.998;2023-09-30T06:24:11;14.10;99.90
15103;DHT22;7652;53.584;9.998;2023-09-30T06:27:34;14.10;99.90
15103;DHT22;7652;53.584;9.998;2023-09-30T06:30:56;14.10;99.90
15103;DHT22;7652;53.584;9.998;2023-09-30T06:34:17;14.10;99.90
15103;DHT22;7652;53.584;9.998;2023-09-30T06:37:40;14.10;99.90
15103;DHT22;7652;53.584;9.998;2023-09-30T06:41:01;14.00;99.90
15103;DHT22;7652;53.584;9.998;2023-09-30T06:44:24;14.00;99.90
15103;DHT22;7652;53.584;9.998;2023-09-30T06:47:46;14.00;99.90
15103;DHT22;7652;53.584;9.998;2023-09-30T06:51:13;14.00;99.90
15103;DHT22;7652;53.584;9.998;2023-09-30T06:54:35;14.00;99.90
15103;DHT22;7652;53.584;9.998;2023-09-30T06:57:57;14.10;99.90
15103;DHT22;7652;53.584;9.998;2023-09-30T07:01:19;14.00;99.90
15103;DHT22;7652;53.584;9.998;2023-09-30T07:04:41;14.10;99.90
15103;DHT22;7652;53.584;9.998;2023-09-30T07:08:03;14.10;99.90
15103;DHT22;7652;53.584;9.998;2023-09-30T07:11:27;14.20;99.90
15103;DHT22;7652;53.584;9.998;2023-09-30T07:14:50;14.30;99.90
15103;DHT22;7652;53.584;9.998;2023-09-30T07:18:13;14.30;99.90
15103;DHT22;7652;53.584;9.998;2023-09-30T07:21:34;14.40;99.90
15103;DHT22;7652;53.584;9.998;2023-09-30T07:24:56;14.50;99.90
15103;DHT22;7652;53.584;9.998;2023-09-30T07:28:17;14.60;99.90
15103;DHT22;7652;53.584;9.998;2023-09-30T07:31:39;14.70;99.90
15103;DHT22;7652;53.584;9.998;2023-09-30T07:35:02;14.80;99.90
15103;DHT22;7652;53.584;9.998;2023-09-30T07:38:23;15.00;99.90
15103;DHT22;7652;53.584;9.998;2023-09-30T07:41:44;15.20;99.90
15103;DHT22;7652;53.584;9.998;2023-09-30T07:45:08;15.30;99.90
15103;DHT22;7652;53.584;9.998;2023-09-30T07:48:52;15.40;99.90
15103;DHT22;7652;53.584;9.998;2023-09-30T07:52:16;15.40;99.90
15103;DHT22;7652;53.584;9.998;2023-09-30T07:55:38;15.40;99.90
15103;DHT22;7652;53.584;9.998;2023-09-30T07:58:59;15.40;99.90
15103;DHT22;7652;53.584;9.998;2023-09-30T08:02:22;15.40;99.90
15103;DHT22;7652;53.584;9.998;2023-09-30T08:05:44;15.50;99.90
15103;DHT22;7652;53.584;9.998;2023-09-30T08:09:08;15.60;99.90
15103;DHT22;7652;53.584;9.998;2023-09-30T08:12:32;15.70;99.90
15103;DHT22;7652;53.584;9.998;2023-09-30T08:15:54;15.70;99.90
15103;DHT22;7652;53.584;9.998;2023-09-30T08:19:15;15.80;99.90
15103;DHT22;7652;53.584;9.998;2023-09-30T08:22:37;15.90;99.90
15103;DHT22;7652;53.584;9.998;2023-09-30T08:26:00;16.00;99.90
15103;DHT22;7652;53.584;9.998;2023-09-30T08:29:22;16.10;99.90
15103;DHT22;7652;53.584;9.998;2023-09-30T08:32:44;16.30;99.90
15103;DHT22;7652;53.584;9.998;2023-09-30T08:36:07;16.50;99.90
15103;DHT22;7652;53.584;9.998;2023-09-30T08:39:30;16.70;99.90
15103;DHT22;7652;53.584;9.998;2023-09-30T08:42:53;16.90;99.90
15103;DHT22;7652;53.584;9.998;2023-09-30T08:46:14;17.00;99.90
15103;DHT22;7652;53.584;9.998;2023-09-30T08:49:38;17.00;99.90
15103;DHT22;7652;53.584;9.998;2023-09-30T08:53:00;17.00;99.90
15103;DHT22;7652;53.584;9.998;2023-09-30T08:56:26;17.00;99.90
15103;DHT22;7652;53.584;9.998;2023-09-30T08:59:50;17.00;99.90
15103;DHT22;7652;53.584;9.998;2023-09-30T09:03:14;17.00;99.90
15103;DHT22;7652;53.584;9.998;2023-09-30T09:06:35;17.10;99.90
15103;DHT22;7652;53.584;9.998;2023-09-30T09:10:04;17.20;99.90
15103;DHT22;7652;53.584;9.998;2023-09-30T09:13:27;17.30;99.90
15103;DHT22;7652;53.584;9.998;2023-09-30T09:16:52;17.40;99.90
15103;DHT22;7652;53.584;9.998;2023-09-30T09:20:17;17.50;99.90
15103;DHT22;7652;53.584;9.998;2023-09-30T09:23:42;17.60;99.90
15103;DHT22;7652;53.584;9.998;2023-09-30T09:27:04;17.70;99.90
15103;DHT22;7652;53.584;9.998;2023-09-30T09:30:27;17.70;99.90
15103;DHT22;7652;53.584;9.998;2023-09-30T09:33:51;17.80;99.90
15103;DHT22;7652;53.584;9.998;2023-09-30T09:37:15;17.90;99.90
15103;DHT22;7652;53.584;9.998;2023-09-30T09:40:38;18.00;99.90
15103;DHT22;7652;53.584;9.998;2023-09-30T09:44:00;18.00;99.90
15103;DHT22;7652;53.584;9.998;2023-09-30T09:47:23;18.00;99.90
15103;DHT22;7652;53.584;9.998;2023-09-30T09:50:47;18.10;99.90
15103;DHT22;7652;53.584;9.998;2023-09-30T09:54:12;18.10;99.90
15103;DHT22;7652;53.584;9.998;2023-09-30T09:57:33;18.20;99.90
15103;DHT22;7652;53.584;9.998;2023-09-30T10:00:58;18.40;99.90
15103;DHT22;7652;53.584;9.998;2023-09-30T10:04:21;18.60;99.90
15103;DHT22;7652;53.584;9.998;2023-09-30T10:07:46;18.70;99.90
15103;DHT22;7652;53.584;9.998;2023-09-30T10:11:16;18.80;99.90
15103;DHT22;7652;53.584;9.998;2023-09-30T10:14:38;18.90;99.90
15103;DHT22;7652;53.584;9.998;2023-09-30T10:18:00;19.00;99.90
15103;DHT22;7652;53.584;9.998;2023-09-30T10:21:23;19.10;99.90
15103;DHT22;7652;53.584;9.998;2023-09-30T10:24:46;19.10;99.90
15103;DHT22;7652;53.584;9.998;2023-09-30T10:28:35;19.10;99.90
15103;DHT22;7652;53.584;9.998;2023-09-30T10:31:57;19.20;99.90
15103;DHT22;7652;53.584;9.998;2023-09-30T10:35:19;19.30;99.90
15103;DHT22;7652;53.584;9.998;2023-09-30T10:38:41;19.20;99.90
15103;DHT22;7652;53.584;9.998;2023-09-30T10:42:04;19.20;99.90
15103;DHT22;7652;53.584;9.998;2023-09-30T10:45:42;19.10;99.90
15103;DHT22;7652;53.584;9.998;2023-09-30T10:49:16;19.00;99.90
15103;DHT22;7652;53.584;9.998;2023-09-30T10:52:38;19.00;99.90
15103;DHT22;7652;53.584;9.998;2023-09-30T10:56:01;19.10;99.90
15103;DHT22;7652;53.584;9.998;2023-09-30T10:59:24;19.30;99.90
15103;DHT22;7652;53.584;9.998;2023-09-30T11:02:49;19.60;99.90
15103;DHT22;7652;53.584;9.998;2023-09-30T11:06:14;20.10;99.90
15103;DHT22;7652;53.584;9.998;2023-09-30T11:09:38;20.40;99.90
15103;DHT22;7652;53.584;9.998;2023-09-30T11:13:01;20.50;99.90
15103;DHT22;7652;53.584;9.998;2023-09-30T11:16:23;20.70;99.90
15103;DHT22;7652;53.584;9.998;2023-09-30T11:19:47;20.30;99.90
15103;DHT22;7652;53.584;9.998;2023-09-30T11:23:09;20.30;99.90
15103;DHT22;7652;53.584;9.998;2023-09-30T11:26:31;20.40;99.90
15103;DHT22;7652;53.584;9.998;2023-09-30T11:29:53;20.50;99.90
15103;DHT22;7652;53.584;9.998;2023-09-30T11:33:16;20.60;99.90
15103;DHT22;7652;53.584;9.998;2023-09-30T11:36:38;20.80;99.90
15103;DHT22;7652;53.584;9.998;2023-09-30T11:40:10;21.00;99.90
15103;DHT22;7652;53.584;9.998;2023-09-30T11:43:34;21.10;99.90
15103;DHT22;7652;53.584;9.998;2023-09-30T11:46:57;21.40;99.90
15103;DHT22;7652;53.584;9.998;2023-09-30T11:50:21;21.80;99.90
15103;DHT22;7652;53.584;9.998;2023-09-30T11:53:45;22.50;99.90
15103;DHT22;7652;53.584;9.998;2023-09-30T11:57:08;22.60;99.90
15103;DHT22;7652;53.584;9.998;2023-09-30T12:00:30;22.30;99.90
15103;DHT22;7652;53.584;9.998;2023-09-30T12:03:52;21.90;99.90
15103;DHT22;7652;53.584;9.998;2023-09-30T12:07:19;21.40;99.90
15103;DHT22;7652;53.584;9.998;2023-09-30T12:10:41;21.70;99.90
15103;DHT22;7652;53.584;9.998;2023-09-30T12:14:02;21.80;99.90
15103;DHT22;7652;53.584;9.998;2023-09-30T12:17:24;21.80;99.90
15103;DHT22;7652;53.584;9.998;2023-09-30T12:20:46;21.40;99.90
15103;DHT22;7652;53.584;9.998;2023-09-30T12:24:09;21.10;99.90
15103;DHT22;7652;53.584;9.998;2023-09-30T12:27:34;20.90;99.90
15103;DHT22;7652;53.584;9.998;2023-09-30T12:30:55;20.50;99.90
15103;DHT22;7652;53.584;9.998;2023-09-30T12:34:17;20.30;99.90
15103;DHT22;7652;53.584;9.998;2023-09-30T12:37:39;20.50;99.90
15103;DHT22;7652;53.584;9.998;2023-09-30T12:41:04;21.20;99.90
15103;DHT22;7652;53.584;9.998;2023-09-30T12:44:25;22.20;99.90
15103;DHT22;7652;53.584;9.998;2023-09-30T12:47:47;23.20;99.90
15103;DHT22;7652;53.584;9.998;2023-09-30T12:51:08;24.30;99.90
15103;DHT22;7652;53.584;9.998;2023-09-30T12:54:30;25.00;99.90
15103;DHT22;7652;53.584;9.998;2023-09-30T12:57:53;24.30;99.90
15103;DHT22;7652;53.584;9.998;2023-09-30T13:01:15;24.40;99.90
15103;DHT22;7652;53.584;9.998;2023-09-30T13:04:42;24.10;99.90
15103;DHT22;7652;53.584;9.998;2023-09-30T13:08:05;23.60;99.90
15103;DHT22;7652;53.584;9.998;2023-09-30T13:11:26;23.90;99.90
15103;DHT22;7652;53.584;9.998;2023-09-30T13:14:49;23.20;99.90
15103;DHT22;7652;53.584;9.998;2023-09-30T13:18:10;22.80;99.90
15103;DHT22;7652;53.584;9.998;2023-09-30T13:21:32;22.50;99.90
15103;DHT22;7652;53.584;9.998;2023-09-30T13:24:53;22.80;99.90
15103;DHT22;7652;53.584;9.998;2023-09-30T13:28:15;23.10;99.90
15103;DHT22;7652;53.584;9.998;2023-09-30T13:31:38;22.80;99.90
15103;DHT22;7652;53.584;9.998;2023-09-30T13:34:59;23.20;99.90
15103;DHT22;7652;53.584;9.998;2023-09-30T13:38:21;23.80;99.90
15103;DHT22;7652;53.584;9.998;2023-09-30T13:41:42;23.50;99.90
15103;DHT22;7652;53.584;9.998;2023-09-30T13:45:05;23.50;99.90
15103;DHT22;7652;53.584;9.998;2023-09-30T13:48:28;22.90;99.90
15103;DHT22;7652;53.584;9.998;2023-09-30T13:51:49;22.50;99.90
15103;DHT22;7652;53.584;9.998;2023-09-30T13:55:11;22.00;99.90
15103;DHT22;7652;53.584;9.998;2023-09-30T13:58:39;21.70;99.90
15103;DHT22;7652;53.584;9.998;2023-09-30T14:02:00;21.30;99.90
15103;DHT22;7652;53.584;9.998;2023-09-30T14:05:24;21.10;99.90
15103;DHT22;7652;53.584;9.998;2023-09-30T14:08:46;20.90;99.90
15103;DHT22;7652;53.584;9.998;2023-09-30T14:12:07;20.90;99.90
15103;DHT22;7652;53.584;9.998;2023-09-30T14:15:29;20.70;99.90
15103;DHT22;7652;53.584;9.998;2023-09-30T14:18:51;20.30;99.90
15103;DHT22;7652;53.584;9.998;2023-09-30T14:22:14;20.10;99.90
15103;DHT22;7652;53.584;9.998;2023-09-30T14:25:36;20.00;99.90
15103;DHT22;7652;53.584;9.998;2023-09-30T14:28:57;19.90;99.90
15103;DHT22;7652;53.584;9.998;2023-09-30T14:32:19;19.80;99.90
15103;DHT22;7652;53.584;9.998;2023-09-30T14:35:41;19.60;99.90
15103;DHT22;7652;53.584;9.998;2023-09-30T14:39:05;19.40;99.90
15103;DHT22;7652;53.584;9.998;2023-09-30T14:42:34;19.50;99.90
15103;DHT22;7652;53.584;9.998;2023-09-30T14:45:56;19.50;99.90
15103;DHT22;7652;53.584;9.998;2023-09-30T14:49:18;19.50;99.90
15103;DHT22;7652;53.584;9.998;2023-09-30T14:52:39;19.50;99.90
15103;DHT22;7652;53.584;9.998;2023-09-30T14:56:03;19.40;99.90
15103;DHT22;7652;53.584;9.998;2023-09-30T14:59:26;19.40;99.90
15103;DHT22;7652;53.584;9.998;2023-09-30T15:02:49;19.40;99.90
15103;DHT22;7652;53.584;9.998;2023-09-30T15:06:10;19.30;99.90
15103;DHT22;7652;53.584;9.998;2023-09-30T15:09:31;19.20;99.90
15103;DHT22;7652;53.584;9.998;2023-09-30T15:12:54;19.20;99.90
15103;DHT22;7652;53.584;9.998;2023-09-30T15:16:19;19.20;99.90
15103;DHT22;7652;53.584;9.998;2023-09-30T15:19:41;19.30;99.90
15103;DHT22;7652;53.584;9.998;2023-09-30T15:23:02;19.30;99.90
15103;DHT22;7652;53.584;9.998;2023-09-30T15:26:24;19.10;99.90
15103;DHT22;7652;53.584;9.998;2023-09-30T15:29:48;19.10;99.90
15103;DHT22;7652;53.584;9.998;2023-09-30T15:33:10;19.10;99.90
15103;DHT22;7652;53.584;9.998;2023-09-30T15:36:31;19.00;99.90
15103;DHT22;7652;53.584;9.998;2023-09-30T15:39:53;18.90;99.90
15103;DHT22;7652;53.584;9.998;2023-09-30T15:43:15;19.00;99.90
15103;DHT22;7652;53.584;9.998;2023-09-30T15:46:38;19.00;99.90
15103;DHT22;7652;53.584;9.998;2023-09-30T15:49:59;18.90;99.90
15103;DHT22;7652;53.584;9.998;2023-09-30T15:53:21;18.90;99.90
15103;DHT22;7652;53.584;9.998;2023-09-30T15:56:42;18.90;99.90
15103;DHT22;7652;53.584;9.998;2023-09-30T16:00:15;18.90;99.90
15103;DHT22;7652;53.584;9.998;2023-09-30T16:03:38;18.80;99.90
15103;DHT22;7652;53.584;9.998;2023-09-30T16:07:02;18.80;99.90
15103;DHT22;7652;53.584;9.998;2023-09-30T16:10:24;18.80;99.90
15103;DHT22;7652;53.584;9.998;2023-09-30T16:13:45;18.70;99.90
15103;DHT22;7652;53.584;9.998;2023-09-30T16:17:07;18.60;99.90
15103;DHT22;7652;53.584;9.998;2023-09-30T16:20:29;18.60;99.90
15103;DHT22;7652;53.584;9.998;2023-09-30T16:23:51;18.60;99.90
15103;DHT22;7652;53.584;9.998;2023-09-30T16:27:13;18.50;99.90
15103;DHT22;7652;53.584;9.998;2023-09-30T16:30:34;18.50;99.90
15103;DHT22;7652;53.584;9.998;2023-09-30T16:33:56;18.50;99.90
15103;DHT22;7652;53.584;9.998;2023-09-30T16:37:19;18.40;99.90
15103;DHT22;7652;53.584;9.998;2023-09-30T16:40:41;18.40;99.90
15103;DHT22;7652;53.584;9.998;2023-09-30T16:44:06;18.30;99.90
15103;DHT22;7652;53.584;9.998;2023-09-30T16:47:28;18.30;99.90
15103;DHT22;7652;53.584;9.998;2023-09-30T16:50:50;18.20;99.90
15103;DHT22;7652;53.584;9.998;2023-09-30T16:54:12;18.20;99.90
15103;DHT22;7652;53.584;9.998;2023-09-30T16:57:34;18.00;99.90
15103;DHT22;7652;53.584;9.998;2023-09-30T17:00:55;18.00;99.90
15103;DHT22;7652;53.584;9.998;2023-09-30T17:04:17;17.90;99.90
15103;DHT22;7652;53.584;9.998;2023-09-30T17:07:39;17.90;99.90
15103;DHT22;7652;53.584;9.998;2023-09-30T17:11:02;17.80;99.90
15103;DHT22;7652;53.584;9.998;2023-09-30T17:14:24;17.80;99.90
15103;DHT22;7652;53.584;9.998;2023-09-30T17:17:45;17.80;99.90
15103;DHT22;7652;53.584;9.998;2023-09-30T17:21:07;17.80;99.90
15103;DHT22;7652;53.584;9.998;2023-09-30T17:24:30;17.80;99.90
15103;DHT22;7652;53.584;9.998;2023-09-30T17:27:54;17.80;99.90
15103;DHT22;7652;53.584;9.998;2023-09-30T17:31:16;17.70;99.90
15103;DHT22;7652;53.584;9.998;2023-09-30T17:34:38;17.70;99.90
15103;DHT22;7652;53.584;9.998;2023-09-30T17:37:59;17.70;99.90
15103;DHT22;7652;53.584;9.998;2023-09-30T17:41:20;17.60;99.90
15103;DHT22;7652;53.584;9.998;2023-09-30T17:44:43;17.60;99.90
15103;DHT22;7652;53.584;9.998;2023-09-30T17:48:05;17.60;99.90
15103;DHT22;7652;53.584;9.998;2023-09-30T17:51:28;17.50;99.90
15103;DHT22;7652;53.584;9.998;2023-09-30T17:54:51;17.50;99.90
15103;DHT22;7652;53.584;9.998;2023-09-30T17:58:12;17.40;99.90
15103;DHT22;7652;53.584;9.998;2023-09-30T18:01:35;17.40;99.90
15103;DHT22;7652;53.584;9.998;2023-09-30T18:04:57;17.40;99.90
15103;DHT22;7652;53.584;9.998;2023-09-30T18:08:19;17.30;99.90
15103;DHT22;7652;53.584;9.998;2023-09-30T18:11:40;17.30;99.90
15103;DHT22;7652;53.584;9.998;2023-09-30T18:15:02;17.30;99.90
15103;DHT22;7652;53.584;9.998;2023-09-30T18:18:25;17.30;99.90
15103;DHT22;7652;53.584;9.998;2023-09-30T18:21:47;17.20;99.90
15103;DHT22;7652;53.584;9.998;2023-09-30T18:25:09;17.20;99.90
15103;DHT22;7652;53.584;9.998;2023-09-30T18:28:30;17.20;99.90
15103;DHT22;7652;53.584;9.998;2023-09-30T18:31:52;17.20;99.90
15103;DHT22;7652;53.584;9.998;2023-09-30T18:35:15;17.10;99.90
15103;DHT22;7652;53.584;9.998;2023-09-30T18:38:37;17.10;99.90
15103;DHT22;7652;53.584;9.998;2023-09-30T18:41:58;17.10;99.90
15103;DHT22;7652;53.584;9.998;2023-09-30T18:45:20;17.10;99.90
15103;DHT22;7652;53.584;9.998;2023-09-30T18:48:42;17.10;99.90
15103;DHT22;7652;53.584;9.998;2023-09-30T18:52:05;17.10;99.90
15103;DHT22;7652;53.584;9.998;2023-09-30T18:55:26;17.00;99.90
15103;DHT22;7652;53.584;9.998;2023-09-30T18:58:48;17.00;99.90
15103;DHT22;7652;53.584;9.998;2023-09-30T19:02:10;17.00;99.90
15103;DHT22;7652;53.584;9.998;2023-09-30T19:05:35;17.00;99.90
15103;DHT22;7652;53.584;9.998;2023-09-30T19:08:58;17.00;99.90
15103;DHT22;7652;53.584;9.998;2023-09-30T19:12:19;17.00;99.90
15103;DHT22;7652;53.584;9.998;2023-09-30T19:15:41;17.00;99.90
15103;DHT22;7652;53.584;9.998;2023-09-30T19:19:03;17.00;99.90
15103;DHT22;7652;53.584;9.998;2023-09-30T19:22:25;17.00;99.90
15103;DHT22;7652;53.584;9.998;2023-09-30T19:25:48;17.00;99.90
15103;DHT22;7652;53.584;9.998;2023-09-30T19:29:09;17.00;99.90
15103;DHT22;7652;53.584;9.998;2023-09-30T19:32:30;17.00;99.90
15103;DHT22;7652;53.584;9.998;2023-09-30T19:35:52;17.00;99.90
15103;DHT22;7652;53.584;9.998;2023-09-30T19:39:14;17.00;99.90
15103;DHT22;7652;53.584;9.998;2023-09-30T19:42:37;17.00;99.90
15103;DHT22;7652;53.584;9.998;2023-09-30T19:46:00;16.90;99.90
15103;DHT22;7652;53.584;9.998;2023-09-30T19:49:22;16.90;99.90
15103;DHT22;7652;53.584;9.998;2023-09-30T19:52:44;16.90;99.90
15103;DHT22;7652;53.584;9.998;2023-09-30T19:56:05;16.90;99.90
15103;DHT22;7652;53.584;9.998;2023-09-30T19:59:29;16.90;99.90
15103;DHT22;7652;53.584;9.998;2023-09-30T20:02:52;16.90;99.90
15103;DHT22;7652;53.584;9.998;2023-09-30T20:06:16;16.90;99.90
15103;DHT22;7652;53.584;9.998;2023-09-30T20:09:38;16.90;99.90
15103;DHT22;7652;53.584;9.998;2023-09-30T20:13:00;16.90;99.90
15103;DHT22;7652;53.584;9.998;2023-09-30T20:16:29;16.90;99.90
15103;DHT22;7652;53.584;9.998;2023-09-30T20:19:51;16.90;99.90
15103;DHT22;7652;53.584;9.998;2023-09-30T20:23:12;16.80;99.90
15103;DHT22;7652;53.584;9.998;2023-09-30T20:26:35;16.90;99.90
15103;DHT22;7652;53.584;9.998;2023-09-30T20:30:00;16.80;99.90
15103;DHT22;7652;53.584;9.998;2023-09-30T20:33:23;16.80;99.90
15103;DHT22;7652;53.584;9.998;2023-09-30T20:36:44;16.80;99.90
15103;DHT22;7652;53.584;9.998;2023-09-30T20:40:06;16.80;99.90
15103;DHT22;7652;53.584;9.998;2023-09-30T20:43:30;16.80;99.90
15103;DHT22;7652;53.584;9.998;2023-09-30T20:46:52;16.70;99.90
15103;DHT22;7652;53.584;9.998;2023-09-30T20:50:15;16.70;99.90
15103;DHT22;7652;53.584;9.998;2023-09-30T20:53:36;16.70;99.90
15103;DHT22;7652;53.584;9.998;2023-09-30T20:56:58;16.60;99.90
15103;DHT22;7652;53.584;9.998;2023-09-30T21:00:19;16.70;99.90
15103;DHT22;7652;53.584;9.998;2023-09-30T21:03:41;16.60;99.90
15103;DHT22;7652;53.584;9.998;2023-09-30T21:07:04;16.60;99.90
15103;DHT22;7652;53.584;9.998;2023-09-30T21:10:27;16.60;99.90
15103;DHT22;7652;53.584;9.998;2023-09-30T21:13:48;16.60;99.90
15103;DHT22;7652;53.584;9.998;2023-09-30T21:17:10;16.60;99.90
15103;DHT22;7652;53.584;9.998;2023-09-30T21:20:32;16.50;99.90
15103;DHT22;7652;53.584;9.998;2023-09-30T21:23:55;16.60;99.90
15103;DHT22;7652;53.584;9.998;2023-09-30T21:27:16;16.60;99.90
15103;DHT22;7652;53.584;9.998;2023-09-30T21:30:38;16.50;99.90
15103;DHT22;7652;53.584;9.998;2023-09-30T21:34:00;16.50;99.90
15103;DHT22;7652;53.584;9.998;2023-09-30T21:37:21;16.50;99.90
15103;DHT22;7652;53.584;9.998;2023-09-30T21:40:44;16.50;99.90